Time;durP1;ratioP1;P1;durP2;ratioP2;P2;SDS_P1;SDS_P2;PMS_P1;PMS_P2;Temp;Humidity;BMP_temperature;BMP_pressure;BME280_temperature;BME280_humidity;BME280_pressure;Samples;Min_cycle;Max_cycle;Signal;HPM_P1;HPM_P2
2022/08/21 00:00:26;;;;;;;5.00;3.22;;;17.90;65.60;;;;;;5115319;28;20024;-73
2022/08/21 00:03:01;;;;;;;5.90;3.08;;;17.80;65.50;;;;;;5115404;28;20042;-74
2022/08/21 00:05:28;;;;;;;7.97;3.53;;;17.80;65.70;;;;;;5115155;28;20036;-74
2022/08/21 00:07:54;;;;;;;7.05;3.17;;;17.80;65.70;;;;;;5115152;28;20442;-74
2022/08/21 00:10:20;;;;;;;6.03;2.58;;;17.90;65.20;;;;;;5114820;28;20036;-74
2022/08/21 00:12:47;;;;;;;6.05;3.20;;;17.90;65.00;;;;;;5115070;28;20070;-73
2022/08/21 00:15:16;;;;;;;6.80;3.40;;;17.90;64.90;;;;;;5115014;28;20017;-74
2022/08/21 00:17:41;;;;;;;6.75;3.40;;;18.00;64.80;;;;;;5114947;28;20041;-74
2022/08/21 00:20:10;;;;;;;4.95;3.08;;;17.90;64.80;;;;;;5114924;28;20051;-73
2022/08/21 00:22:36;;;;;;;6.38;3.25;;;17.90;65.10;;;;;;5114861;28;20091;-73
2022/08/21 00:25:04;;;;;;;7.00;3.38;;;17.90;65.00;;;;;;5114808;28;20092;-73
2022/08/21 00:27:30;;;;;;;5.75;3.60;;;17.80;65.40;;;;;;5114720;28;20046;-73
2022/08/21 00:29:55;;;;;;;6.28;3.80;;;17.70;65.40;;;;;;5114569;28;20036;-73
2022/08/21 00:32:23;;;;;;;7.57;4.47;;;17.50;66.00;;;;;;5114662;28;20067;-74
2022/08/21 00:34:49;;;;;;;8.07;4.15;;;17.30;66.80;;;;;;5114641;28;20012;-74
2022/08/21 00:37:15;;;;;;;6.82;3.78;;;17.30;67.00;;;;;;5114554;28;20077;-72
2022/08/21 00:39:40;;;;;;;6.15;3.97;;;17.50;66.30;;;;;;5114522;28;20028;-73
2022/08/21 00:42:06;;;;;;;6.60;3.65;;;17.60;65.80;;;;;;5114508;28;20079;-73
2022/08/21 00:44:32;;;;;;;6.78;4.00;;;17.60;65.50;;;;;;5113468;28;20565;-73
2022/08/21 00:46:58;;;;;;;7.18;3.97;;;17.50;65.50;;;;;;5114395;28;20032;-72
2022/08/21 00:49:23;;;;;;;6.90;3.92;;;17.40;65.70;;;;;;5114275;28;20034;-75
2022/08/21 00:51:53;;;;;;;6.78;4.60;;;17.30;66.20;;;;;;5114316;28;20040;-73
2022/08/21 00:54:22;;;;;;;7.70;3.97;;;17.40;66.40;;;;;;5113806;28;20031;-73
2022/08/21 00:56:52;;;;;;;7.05;3.70;;;17.50;66.30;;;;;;5114218;28;20031;-73
2022/08/21 00:59:20;;;;;;;4.85;3.90;;;17.50;66.20;;;;;;5114389;28;20027;-73
2022/08/21 01:01:46;;;;;;;6.07;3.83;;;17.40;66.10;;;;;;5114166;28;20020;-73
2022/08/21 01:04:12;;;;;;;7.25;3.90;;;17.40;66.20;;;;;;5114084;28;20080;-73
2022/08/21 01:06:38;;;;;;;6.82;3.78;;;17.40;65.80;;;;;;5114053;28;20081;-73
2022/08/21 01:09:04;;;;;;;6.57;3.92;;;17.40;65.80;;;;;;5114044;28;20024;-73
2022/08/21 01:11:30;;;;;;;6.43;3.85;;;17.40;66.00;;;;;;5113656;28;20048;-73
2022/08/21 01:13:55;;;;;;;6.28;4.10;;;17.40;66.50;;;;;;5113913;28;20036;-73
2022/08/21 01:16:22;;;;;;;8.50;4.32;;;17.50;66.50;;;;;;5113897;28;20023;-73
2022/08/21 01:18:49;;;;;;;7.63;4.53;;;17.50;66.80;;;;;;5112865;28;20051;-73
2022/08/21 01:21:21;;;;;;;9.88;4.18;;;17.50;66.90;;;;;;5113876;28;20039;-73
2022/08/21 01:23:52;;;;;;;6.97;4.35;;;17.40;67.90;;;;;;5113882;28;20031;-73
2022/08/21 01:26:22;;;;;;;6.32;3.95;;;17.20;67.50;;;;;;5113947;28;20046;-73
2022/08/21 01:29:01;;;;;;;8.48;4.53;;;17.20;67.60;;;;;;5113713;28;20054;-73
2022/08/21 01:31:28;;;;;;;8.20;4.63;;;17.30;68.20;;;;;;5112639;28;20115;-73
2022/08/21 01:33:55;;;;;;;7.65;4.75;;;17.30;68.20;;;;;;5113831;28;20016;-73
2022/08/21 01:36:22;;;;;;;6.03;4.18;;;17.40;68.30;;;;;;5113637;28;20020;-73
2022/08/21 01:38:48;;;;;;;9.07;4.85;;;17.40;67.60;;;;;;5113596;28;20028;-73
2022/08/21 01:41:15;;;;;;;7.25;4.40;;;17.40;67.80;;;;;;5113581;28;20048;-73
2022/08/21 01:43:42;;;;;;;7.55;4.50;;;17.40;67.70;;;;;;5112539;28;20089;-73
2022/08/21 01:46:09;;;;;;;6.00;4.45;;;17.40;67.60;;;;;;5113539;28;20391;-73
2022/08/21 01:48:35;;;;;;;10.48;4.93;;;17.40;67.50;;;;;;5113503;28;20024;-73
2022/08/21 01:51:01;;;;;;;8.13;4.40;;;17.50;67.70;;;;;;5113409;28;20058;-73
2022/08/21 01:53:27;;;;;;;6.50;4.80;;;17.50;68.20;;;;;;5113497;28;20030;-73
2022/08/21 01:55:53;;;;;;;7.22;4.85;;;17.50;68.60;;;;;;5113429;28;20029;-73
2022/08/21 01:58:19;;;;;;;7.00;4.90;;;17.50;68.60;;;;;;5113432;28;20052;-73
2022/08/21 02:00:44;;;;;;;7.13;5.10;;;17.50;68.60;;;;;;5113444;28;20024;-73
2022/08/21 02:03:10;;;;;;;7.43;5.00;;;17.50;68.30;;;;;;5113368;28;20024;-73
2022/08/21 02:05:36;;;;;;;8.30;4.70;;;17.50;68.80;;;;;;5115548;28;20039;-73
2022/08/21 02:08:02;;;;;;;9.57;5.38;;;17.40;68.60;;;;;;5117464;28;20053;-73
2022/08/21 02:10:30;;;;;;;8.85;5.55;;;17.50;68.50;;;;;;5117206;28;20108;-73
2022/08/21 02:12:58;;;;;;;8.63;5.07;;;17.50;68.60;;;;;;5117395;28;20088;-73
2022/08/21 02:15:24;;;;;;;7.75;4.60;;;17.50;68.70;;;;;;5117330;28;20016;-73
2022/08/21 02:17:53;;;;;;;8.70;4.97;;;17.50;68.70;;;;;;5117320;28;20047;-73
2022/08/21 02:20:25;;;;;;;7.55;4.90;;;17.50;68.80;;;;;;5117281;28;20020;-73
2022/08/21 02:22:51;;;;;;;;;;;17.50;68.90;;;;;;5116655;28;20024;-73
2022/08/21 02:25:19;;;;;;;9.13;5.18;;;17.40;69.30;;;;;;5117258;28;20366;-73
2022/08/21 02:27:47;;;;;;;7.18;4.88;;;17.30;69.40;;;;;;5117127;28;20027;-73
2022/08/21 02:30:20;;;;;;;7.35;4.82;;;17.30;69.60;;;;;;5116962;28;20031;-73
2022/08/21 02:32:45;;;;;;;;;;;17.20;69.80;;;;;;5117471;28;20027;-73
2022/08/21 02:35:11;;;;;;;9.05;4.82;;;17.10;70.40;;;;;;5116962;28;19908;-73
2022/08/21 02:37:52;;;;;;;8.23;5.35;;;17.10;70.30;;;;;;5116928;28;20020;-73
2022/08/21 02:40:21;;;;;;;7.18;4.90;;;17.20;70.00;;;;;;5116909;28;20028;-73
2022/08/21 02:42:47;;;;;;;8.70;5.03;;;17.10;70.10;;;;;;5116844;28;20024;-73
2022/08/21 02:45:14;;;;;;;11.00;5.30;;;17.10;70.20;;;;;;5116758;28;20024;-73
2022/08/21 02:47:46;;;;;;;7.13;4.70;;;17.10;70.00;;;;;;5116762;28;20052;-73
2022/08/21 02:50:11;;;;;;;8.00;5.20;;;17.10;69.90;;;;;;5116792;28;20024;-73
2022/08/21 02:52:37;;;;;;;9.38;5.40;;;17.10;69.90;;;;;;5116632;28;20085;-73
2022/08/21 02:55:03;;;;;;;7.82;4.68;;;17.00;69.80;;;;;;5116594;28;20038;-73
2022/08/21 02:57:28;;;;;;;7.15;4.65;;;17.00;69.70;;;;;;5116531;28;20498;-73
2022/08/21 02:59:54;;;;;;;10.27;5.25;;;17.00;69.40;;;;;;5116471;28;20062;-73
2022/08/21 03:02:21;;;;;;;7.65;5.22;;;16.80;70.10;;;;;;5116470;28;20084;-73
2022/08/21 03:04:46;;;;;;;7.30;4.57;;;16.70;69.60;;;;;;5116426;28;20034;-73
2022/08/21 03:07:12;;;;;;;8.23;4.57;;;16.70;70.20;;;;;;5116349;28;20044;-73
2022/08/21 03:09:38;;;;;;;8.60;5.43;;;16.70;70.50;;;;;;5116016;28;20042;-73
2022/08/21 03:12:04;;;;;;;6.28;4.43;;;16.60;70.40;;;;;;5116320;28;20028;-73
2022/08/21 03:14:29;;;;;;;8.27;4.65;;;16.70;70.10;;;;;;5116238;28;20020;-73
2022/08/21 03:16:55;;;;;;;7.00;4.93;;;16.80;69.70;;;;;;5114850;28;20046;-73
2022/08/21 03:19:20;;;;;;;11.55;4.55;;;17.00;69.60;;;;;;5116117;28;20024;-73
2022/08/21 03:21:46;;;;;;;6.25;4.18;;;17.00;69.30;;;;;;5116073;28;20028;-73
2022/08/21 03:24:12;;;;;;;6.10;4.35;;;16.90;69.30;;;;;;5116180;28;20032;-73
2022/08/21 03:26:37;;;;;;;9.82;4.57;;;16.90;69.20;;;;;;5115984;28;20036;-73
2022/08/21 03:29:03;;;;;;;5.72;4.47;;;16.90;69.20;;;;;;5115120;28;20028;-73
2022/08/21 03:31:30;;;;;;;7.22;4.55;;;16.80;69.20;;;;;;5115826;28;20043;-73
2022/08/21 03:33:57;;;;;;;7.65;4.25;;;16.70;69.10;;;;;;5115871;28;20107;-73
2022/08/21 03:36:23;;;;;;;4.38;3.75;;;16.70;69.30;;;;;;5115784;28;20048;-74
2022/08/21 03:38:48;;;;;;;5.90;4.25;;;16.80;69.10;;;;;;5115752;28;20035;-73
2022/08/21 03:41:14;;;;;;;5.57;4.22;;;16.70;68.90;;;;;;5115742;28;20028;-74
2022/08/21 03:43:40;;;;;;;8.00;4.25;;;16.60;68.90;;;;;;5115639;28;20035;-74
2022/08/21 03:46:06;;;;;;;6.78;4.50;;;16.40;69.30;;;;;;5115766;28;20052;-73
2022/08/21 03:48:32;;;;;;;8.48;4.45;;;16.50;69.60;;;;;;5115604;28;20021;-73
2022/08/21 03:50:58;;;;;;;6.38;4.60;;;16.30;69.70;;;;;;5115490;28;20024;-73
2022/08/21 03:53:24;;;;;;;6.88;4.18;;;16.30;70.00;;;;;;5115510;28;20043;-73
2022/08/21 03:55:52;;;;;;;6.35;4.45;;;16.20;70.00;;;;;;5115411;28;20044;-74
2022/08/21 03:58:20;;;;;;;8.55;5.40;;;16.20;70.10;;;;;;5115394;28;20016;-73
2022/08/21 04:00:49;;;;;;;8.05;4.78;;;16.20;70.30;;;;;;5115346;28;20062;-74
2022/08/21 04:03:15;;;;;;;10.55;5.38;;;16.30;70.30;;;;;;5115281;28;20028;-73
2022/08/21 04:05:41;;;;;;;9.70;5.07;;;16.20;70.50;;;;;;5115229;28;20025;-73
2022/08/21 04:08:07;;;;;;;8.98;5.25;;;16.30;70.50;;;;;;5115209;28;20020;-73
2022/08/21 04:10:36;;;;;;;7.20;4.70;;;16.30;70.30;;;;;;5114856;28;20071;-74
2022/08/21 04:13:03;;;;;;;6.40;3.95;;;16.40;70.00;;;;;;5115079;28;20019;-73
2022/08/21 04:15:28;;;;;;;6.45;4.30;;;16.30;69.80;;;;;;5114215;28;20069;-74
2022/08/21 04:17:54;;;;;;;8.93;4.47;;;16.20;69.80;;;;;;5114968;28;20024;-74
2022/08/21 04:20:21;;;;;;;7.57;4.85;;;16.20;70.10;;;;;;5114933;28;20031;-74
2022/08/21 04:22:48;;;;;;;7.93;4.88;;;16.20;70.10;;;;;;5114873;28;20031;-73
2022/08/21 04:25:15;;;;;;;6.78;4.70;;;16.20;69.90;;;;;;5114873;28;20028;-73
2022/08/21 04:27:41;;;;;;;7.00;5.13;;;16.00;70.00;;;;;;5113956;28;20020;-73
2022/08/21 04:30:08;;;;;;;10.02;5.43;;;15.90;70.50;;;;;;5114625;28;20024;-73
2022/08/21 04:32:35;;;;;;;9.77;5.55;;;15.90;70.80;;;;;;5114714;28;20024;-74
2022/08/21 04:35:03;;;;;;;7.90;5.90;;;15.90;70.80;;;;;;5114675;28;20027;-74
2022/08/21 04:37:29;;;;;;;11.70;5.70;;;16.00;70.80;;;;;;5114604;28;20031;-74
2022/08/21 04:39:57;;;;;;;9.88;5.85;;;16.10;70.80;;;;;;5114606;28;20028;-74
2022/08/21 04:42:24;;;;;;;7.82;5.50;;;16.00;70.80;;;;;;5114518;28;20044;-74
2022/08/21 04:44:50;;;;;;;8.93;6.00;;;16.00;70.90;;;;;;5114485;28;20398;-73
2022/08/21 04:47:16;;;;;;;9.40;5.60;;;16.00;71.10;;;;;;5114438;28;20028;-73
2022/08/21 04:49:42;;;;;;;8.43;5.72;;;16.00;71.10;;;;;;5114289;28;20035;-73
2022/08/21 04:52:09;;;;;;;9.15;5.72;;;16.00;71.30;;;;;;5114319;28;20092;-74
2022/08/21 04:54:35;;;;;;;10.18;6.30;;;16.10;71.30;;;;;;5114291;28;20016;-74
2022/08/21 04:57:05;;;;;;;8.85;6.22;;;16.00;71.40;;;;;;5114262;28;20088;-74
2022/08/21 04:59:36;;;;;;;9.68;6.00;;;16.10;71.60;;;;;;5114271;28;20031;-73
2022/08/21 05:02:02;;;;;;;8.32;5.22;;;16.00;71.40;;;;;;5114338;28;20044;-73
2022/08/21 05:04:31;;;;;;;9.95;6.13;;;16.00;71.60;;;;;;5114125;28;20028;-74
2022/08/21 05:07:00;;;;;;;11.77;6.55;;;16.10;71.50;;;;;;5114066;28;20019;-73
2022/08/21 05:09:27;;;;;;;10.80;6.97;;;16.20;71.50;;;;;;5113964;28;20020;-74
2022/08/21 05:11:54;;;;;;;12.18;7.13;;;16.20;71.60;;;;;;5114028;28;20028;-74
2022/08/21 05:14:19;;;;;;;11.02;7.10;;;16.20;71.90;;;;;;5113961;28;20095;-73
2022/08/21 05:16:46;;;;;;;14.05;7.45;;;16.20;72.10;;;;;;5113939;28;20031;-73
2022/08/21 05:19:12;;;;;;;9.68;7.43;;;16.30;72.50;;;;;;5113857;28;20024;-73
2022/08/21 05:21:41;;;;;;;16.52;8.27;;;16.30;72.60;;;;;;5113863;28;20032;-73
2022/08/21 05:24:07;;;;;;;11.63;7.95;;;16.40;72.70;;;;;;5113855;28;20046;-74
2022/08/21 05:26:33;;;;;;;12.20;7.68;;;16.40;72.80;;;;;;5113754;28;20079;-74
2022/08/21 05:28:59;;;;;;;11.70;8.25;;;16.40;72.90;;;;;;5113653;28;20036;-73
2022/08/21 05:31:24;;;;;;;12.40;8.70;;;16.40;73.10;;;;;;5113786;28;20032;-74
2022/08/21 05:33:50;;;;;;;12.32;8.27;;;16.40;73.60;;;;;;5113695;28;20028;-73
2022/08/21 05:36:17;;;;;;;13.70;8.35;;;16.40;73.80;;;;;;5113647;28;20024;-73
2022/08/21 05:38:43;;;;;;;12.15;7.88;;;16.40;73.80;;;;;;5113624;28;20012;-74
2022/08/21 05:41:09;;;;;;;13.07;8.00;;;16.40;73.70;;;;;;5113591;28;20028;-74
2022/08/21 05:43:36;;;;;;;16.38;8.50;;;16.40;74.00;;;;;;5113558;28;20028;-74
2022/08/21 05:46:04;;;;;;;12.98;8.57;;;16.40;74.40;;;;;;5113529;28;20024;-74
2022/08/21 05:48:30;;;;;;;15.70;8.40;;;16.40;74.60;;;;;;5113517;28;20098;-74
2022/08/21 05:50:56;;;;;;;14.70;8.57;;;16.50;74.80;;;;;;5113438;28;20062;-74
2022/08/21 05:53:23;;;;;;;11.00;8.45;;;16.50;74.90;;;;;;5113467;28;20027;-74
2022/08/21 05:55:50;;;;;;;12.82;7.90;;;16.50;75.10;;;;;;5113465;28;20059;-73
2022/08/21 05:58:18;;;;;;;13.27;8.82;;;16.50;74.90;;;;;;5113454;28;20020;-73
2022/08/21 06:00:46;;;;;;;14.02;8.48;;;16.60;75.00;;;;;;5113430;28;20020;-74
2022/08/21 06:03:21;;;;;;;16.25;8.77;;;16.60;75.00;;;;;;5113380;28;20026;-74
2022/08/21 06:05:47;;;;;;;14.43;7.53;;;16.60;75.00;;;;;;5113438;28;20024;-73
2022/08/21 06:08:14;;;;;;;16.08;8.30;;;16.60;75.10;;;;;;5113294;28;20028;-74
2022/08/21 06:10:40;;;;;;;12.73;7.30;;;16.70;75.30;;;;;;5112917;28;20123;-74
2022/08/21 06:13:06;;;;;;;12.40;7.80;;;16.70;75.30;;;;;;5113032;28;20020;-74
2022/08/21 06:15:32;;;;;;;12.85;7.47;;;16.70;75.60;;;;;;5113191;28;20016;-74
2022/08/21 06:17:57;;;;;;;10.73;7.30;;;16.70;76.50;;;;;;5113209;28;20020;-73
2022/08/21 06:20:23;;;;;;;9.98;7.20;;;16.80;75.80;;;;;;5113192;28;20028;-74
2022/08/21 06:22:49;;;;;;;10.30;6.53;;;16.80;75.90;;;;;;5113163;28;20028;-74
2022/08/21 06:25:14;;;;;;;10.38;7.05;;;16.80;76.50;;;;;;5113178;28;20054;-74
2022/08/21 06:27:40;;;;;;;12.13;6.40;;;16.80;76.40;;;;;;5113068;28;20032;-74
2022/08/21 06:30:07;;;;;;;11.93;6.53;;;16.80;76.50;;;;;;5112882;28;20039;-74
2022/08/21 06:32:34;;;;;;;11.43;6.35;;;16.90;76.30;;;;;;5113073;28;20040;-74
2022/08/21 06:34:59;;;;;;;11.45;6.13;;;16.90;76.70;;;;;;5113100;28;20020;-74
2022/08/21 06:37:25;;;;;;;11.27;6.50;;;16.90;76.70;;;;;;5113179;28;20525;-74
2022/08/21 06:39:50;;;;;;;10.05;6.10;;;17.00;77.30;;;;;;5113025;28;20032;-74
2022/08/21 06:42:17;;;;;;;12.18;6.00;;;17.00;77.00;;;;;;5113144;28;20028;-74
2022/08/21 06:44:43;;;;;;;10.90;6.10;;;17.00;77.10;;;;;;5112885;28;20043;-74
2022/08/21 06:47:09;;;;;;;12.93;6.25;;;17.10;77.40;;;;;;5112970;28;20028;-73
2022/08/21 06:49:36;;;;;;;12.35;6.03;;;17.00;77.60;;;;;;5112877;28;20020;-73
2022/08/21 06:52:02;;;;;;;9.15;6.03;;;17.10;77.50;;;;;;5115601;28;20047;-74
2022/08/21 06:54:28;;;;;;;11.48;6.22;;;17.20;77.80;;;;;;5116615;28;20024;-74
2022/08/21 06:56:53;;;;;;;11.85;5.80;;;17.30;77.80;;;;;;5116597;28;20055;-74
2022/08/21 06:59:19;;;;;;;10.45;5.88;;;17.50;77.60;;;;;;5116528;28;20028;-74
2022/08/21 07:01:46;;;;;;;10.35;5.70;;;17.50;77.60;;;;;;5116461;28;20028;-74
2022/08/21 07:04:11;;;;;;;12.27;5.97;;;17.50;77.30;;;;;;5116505;28;20024;-74
2022/08/21 07:06:37;;;;;;;8.65;5.32;;;17.60;77.30;;;;;;5116431;28;20039;-73
2022/08/21 07:09:03;;;;;;;12.18;5.72;;;17.70;77.40;;;;;;5116350;28;20036;-74
2022/08/21 07:11:29;;;;;;;11.85;5.70;;;17.70;78.20;;;;;;5116065;28;20048;-74
2022/08/21 07:13:56;;;;;;;12.20;5.85;;;17.80;78.00;;;;;;5116280;28;20034;-74
2022/08/21 07:16:22;;;;;;;9.95;5.90;;;17.90;77.00;;;;;;5116212;28;20012;-74
2022/08/21 07:18:48;;;;;;;9.40;5.57;;;17.90;77.20;;;;;;5116179;28;20020;-74
2022/08/21 07:21:15;;;;;;;12.82;6.30;;;17.90;76.70;;;;;;5116141;28;20444;-74
2022/08/21 07:23:47;;;;;;;11.35;5.78;;;18.00;77.00;;;;;;5116125;28;20024;-74
2022/08/21 07:26:14;;;;;;;;;;;18.10;77.40;;;;;;5116662;28;20028;-74
2022/08/21 07:28:40;;;;;;;9.45;4.85;;;18.20;77.20;;;;;;5115950;28;19907;-73
2022/08/21 07:31:06;;;;;;;11.85;6.28;;;18.10;76.80;;;;;;5115846;28;20051;-74
2022/08/21 07:33:33;;;;;;;14.75;5.65;;;18.20;76.70;;;;;;5115893;28;20016;-73
2022/08/21 07:36:00;;;;;;;15.80;5.82;;;18.20;77.10;;;;;;5115827;28;20016;-74
2022/08/21 07:38:26;;;;;;;9.07;5.25;;;18.30;77.60;;;;;;5115822;28;20020;-74
2022/08/21 07:40:55;;;;;;;11.75;5.40;;;18.40;76.90;;;;;;5115885;28;20024;-73
2022/08/21 07:43:21;;;;;;;11.45;5.63;;;18.50;76.90;;;;;;5115718;28;20083;-73
2022/08/21 07:45:49;;;;;;;12.10;5.28;;;18.50;76.40;;;;;;5115600;28;20032;-73
2022/08/21 07:48:15;;;;;;;9.35;5.45;;;18.60;76.10;;;;;;5115602;28;20028;-73
2022/08/21 07:50:41;;;;;;;9.10;5.10;;;18.70;78.20;;;;;;5115502;28;20021;-73
2022/08/21 07:53:07;;;;;;;9.02;5.15;;;18.90;77.60;;;;;;5115507;28;20040;-73
2022/08/21 07:55:33;;;;;;;11.38;5.35;;;18.90;76.60;;;;;;5115456;28;20031;-73
2022/08/21 07:57:59;;;;;;;13.95;5.70;;;19.00;76.30;;;;;;5115452;28;20020;-73
2022/08/21 08:00:27;;;;;;;14.38;6.07;;;19.10;75.80;;;;;;5115390;28;20403;-73
2022/08/21 08:02:54;;;;;;;11.45;5.20;;;19.20;76.80;;;;;;5114208;28;20024;-73
2022/08/21 08:05:25;;;;;;;10.85;6.00;;;19.30;76.20;;;;;;5115240;28;20027;-73
2022/08/21 08:07:51;;;;;;;10.57;5.38;;;19.30;75.80;;;;;;5115239;28;20023;-73
2022/08/21 08:10:17;;;;;;;9.68;4.70;;;19.30;75.40;;;;;;5114002;28;20136;-73
2022/08/21 08:12:44;;;;;;;10.10;5.20;;;19.40;75.20;;;;;;5115173;28;20024;-73
2022/08/21 08:15:14;;;;;;;12.88;4.97;;;19.40;75.90;;;;;;5115101;28;20046;-73
2022/08/21 08:17:39;;;;;;;14.02;5.40;;;19.40;75.20;;;;;;5115042;28;20020;-73
2022/08/21 08:20:10;;;;;;;10.65;4.43;;;19.50;74.80;;;;;;5114949;28;20028;-73
2022/08/21 08:22:37;;;;;;;8.70;4.65;;;19.50;75.00;;;;;;5114984;28;20020;-73
2022/08/21 08:25:04;;;;;;;8.52;4.60;;;19.60;74.60;;;;;;5114925;28;20487;-73
2022/08/21 08:27:29;;;;;;;12.73;4.47;;;19.60;74.20;;;;;;5114814;28;20051;-73
2022/08/21 08:29:55;;;;;;;10.25;4.82;;;19.60;74.20;;;;;;5114613;28;20032;-73
2022/08/21 08:32:21;;;;;;;11.85;4.72;;;19.70;74.50;;;;;;5114756;28;20016;-74
2022/08/21 08:34:48;;;;;;;10.70;4.63;;;19.80;74.10;;;;;;5114700;28;20020;-74
2022/08/21 08:37:14;;;;;;;9.93;4.28;;;19.90;74.00;;;;;;5114765;28;20027;-74
2022/08/21 08:39:40;;;;;;;13.32;4.80;;;19.90;73.30;;;;;;5114597;28;20024;-74
2022/08/21 08:42:24;;;;;;;10.52;4.65;;;19.90;73.40;;;;;;5114553;28;20012;-74
2022/08/21 08:45:01;;;;;;;13.48;5.20;;;20.00;72.90;;;;;;5114545;28;20050;-74
2022/08/21 08:47:30;;;;;;;9.82;3.83;;;20.10;74.30;;;;;;5114483;28;20076;-74
2022/08/21 08:50:11;;;;;;;12.52;4.38;;;20.20;73.90;;;;;;5114372;28;20042;-74
2022/08/21 08:52:48;;;;;;;12.80;4.72;;;20.40;73.90;;;;;;5114415;28;20387;-74
2022/08/21 08:55:20;;;;;;;12.48;4.63;;;20.50;73.20;;;;;;5114392;28;20019;-74
2022/08/21 08:57:48;;;;;;;;;;;20.50;72.50;;;;;;5114862;28;20039;-74
2022/08/21 09:00:16;;;;;;;8.65;3.63;;;20.60;71.80;;;;;;5114265;28;19911;-74
2022/08/21 09:02:43;;;;;;;7.63;3.88;;;20.60;72.50;;;;;;5114199;28;20437;-74
2022/08/21 09:05:35;;;;;;;11.75;4.35;;;20.60;71.30;;;;;;5114134;28;20028;-74
2022/08/21 09:08:04;;;;;;;13.30;3.88;;;20.60;70.70;;;;;;5105780;28;20056;-74
2022/08/21 09:10:54;;;;;;;8.20;3.97;;;20.60;71.50;;;;;;5113880;28;20044;-74
2022/08/21 09:13:30;;;;;;;8.30;4.18;;;20.80;72.70;;;;;;5113635;28;20050;-74
2022/08/21 09:16:37;;;;;;;11.38;3.30;;;21.00;72.10;;;;;;5114026;28;20016;-74
2022/08/21 09:19:39;;;;;;;7.13;3.30;;;21.30;69.70;;;;;;5091735;28;20059;-74
2022/08/21 09:22:30;;;;;;;8.93;2.85;;;21.30;69.30;;;;;;5091866;28;20028;-74
2022/08/21 09:25:01;;;;;;;10.02;3.08;;;21.40;68.70;;;;;;5111602;28;20439;-74
2022/08/21 09:27:30;;;;;;;5.72;3.05;;;21.40;68.40;;;;;;5114001;28;20031;-74
2022/08/21 09:29:57;;;;;;;8.70;3.47;;;21.50;68.60;;;;;;5113634;28;20017;-74
2022/08/21 09:32:28;;;;;;;6.57;2.75;;;21.60;68.00;;;;;;5113761;28;20020;-74
2022/08/21 09:35:11;;;;;;;8.38;3.28;;;21.70;67.70;;;;;;5113733;28;20024;-74
2022/08/21 09:37:45;;;;;;;;;;;21.80;66.70;;;;;;5114153;28;20046;-74
2022/08/21 09:40:32;;;;;;;6.13;2.15;;;21.90;66.00;;;;;;5113617;28;19925;-74
2022/08/21 09:43:01;;;;;;;7.20;2.70;;;22.00;65.10;;;;;;5113630;28;20024;-74
2022/08/21 09:45:27;;;;;;;6.30;2.75;;;22.00;64.50;;;;;;5112565;28;20414;-74
2022/08/21 09:47:53;;;;;;;7.30;2.90;;;22.00;65.00;;;;;;5113584;28;20050;-74
2022/08/21 09:50:27;;;;;;;4.85;2.40;;;21.90;65.30;;;;;;5113442;28;20028;-74
2022/08/21 09:52:58;;;;;;;7.03;2.50;;;21.80;64.50;;;;;;5113532;28;20025;-74
2022/08/21 09:58:34;;;;;;;7.65;2.60;;;21.80;64.10;;;;;;5113477;28;20296;-74
2022/08/21 10:01:02;;;;;;;5.93;2.03;;;21.80;63.20;;;;;;5113493;28;20055;-74
2022/08/21 10:03:29;;;;;;;8.18;1.98;;;21.80;63.30;;;;;;5113309;28;20028;-74
2022/08/21 10:06:08;;;;;;;7.65;2.47;;;21.90;63.10;;;;;;5113388;28;20077;-74
2022/08/21 10:08:35;;;;;;;7.38;2.20;;;22.00;63.10;;;;;;5113384;28;20031;-74
2022/08/21 10:11:14;;;;;;;5.93;2.17;;;22.10;64.90;;;;;;5113126;28;20048;-74
2022/08/21 10:14:01;;;;;;;7.63;1.83;;;22.00;63.10;;;;;;5113281;28;20020;-74
2022/08/21 10:16:35;;;;;;;4.70;2.00;;;22.20;62.50;;;;;;5113293;28;20034;-74
2022/08/21 10:19:41;;;;;;;3.22;1.73;;;22.10;63.00;;;;;;5113449;28;20028;-74
2022/08/21 10:22:17;;;;;;;3.70;1.83;;;22.20;62.20;;;;;;5113397;28;20020;-74
2022/08/21 10:25:14;;;;;;;5.95;1.70;;;22.30;61.60;;;;;;5113362;28;20031;-74
2022/08/21 10:28:02;;;;;;;5.07;1.73;;;22.30;60.40;;;;;;5117219;28;20032;-74
2022/08/21 10:30:43;;;;;;;2.53;1.55;;;22.50;61.70;;;;;;5113943;28;20050;-74
2022/08/21 10:33:44;;;;;;;5.38;1.55;;;22.50;59.50;;;;;;5117146;28;20040;-74
2022/08/21 10:36:23;;;;;;;5.78;1.77;;;22.60;58.90;;;;;;5097377;28;20092;-74
2022/08/21 10:39:22;;;;;;;5.25;1.70;;;22.70;57.90;;;;;;5117175;28;20023;-73
2022/08/21 10:41:48;;;;;;;3.70;1.75;;;22.70;57.80;;;;;;5117009;28;20024;-74
2022/08/21 10:44:30;;;;;;;4.20;1.35;;;22.70;59.40;;;;;;5116854;28;20035;-73
2022/08/21 10:47:07;;;;;;;3.67;1.42;;;22.90;57.20;;;;;;5116865;28;20035;-74
2022/08/21 10:49:48;;;;;;;4.88;1.83;;;23.00;56.90;;;;;;5116726;28;20046;-74
2022/08/21 10:52:32;;;;;;;4.38;1.77;;;23.10;57.10;;;;;;5116888;28;20184;-74
2022/08/21 10:55:21;;;;;;;7.40;1.67;;;23.30;55.00;;;;;;5116868;28;20023;-74
2022/08/21 10:58:09;;;;;;;4.07;1.60;;;23.30;55.80;;;;;;5116791;28;20020;-74
2022/08/21 11:00:38;;;;;;;5.00;1.58;;;23.30;56.40;;;;;;5116751;28;20031;-74
2022/08/21 11:03:11;;;;;;;4.00;1.75;;;23.40;54.50;;;;;;5116536;28;20028;-74
2022/08/21 11:05:49;;;;;;;6.00;2.08;;;23.60;55.30;;;;;;5116484;28;20463;-74
2022/08/21 11:08:23;;;;;;;4.75;1.90;;;23.60;52.20;;;;;;5116491;28;20032;-74
2022/08/21 11:11:09;;;;;;;3.95;1.80;;;23.60;54.20;;;;;;5116163;28;20067;-74
2022/08/21 11:13:41;;;;;;;5.65;2.08;;;23.70;55.00;;;;;;5116366;28;20031;-74
2022/08/21 11:16:16;;;;;;;;;;;23.90;53.50;;;;;;5116681;28;20030;-74
2022/08/21 11:18:48;;;;;;;6.53;2.00;;;23.90;53.10;;;;;;5116216;28;19908;-74
2022/08/21 11:21:33;;;;;;;3.70;2.10;;;24.10;53.30;;;;;;5116233;28;20076;-74
2022/08/21 11:24:17;;;;;;;4.45;2.00;;;24.10;53.30;;;;;;5116232;28;20034;-74
2022/08/21 11:26:45;;;;;;;5.60;2.10;;;24.20;52.50;;;;;;5116078;28;20116;-74
2022/08/21 11:29:26;;;;;;;3.13;1.73;;;24.20;53.50;;;;;;5115937;28;20024;-73
2022/08/21 11:32:15;;;;;;;2.10;1.70;;;24.30;52.40;;;;;;5115903;28;20028;-73
2022/08/21 11:34:57;;;;;;;3.20;1.90;;;24.20;51.70;;;;;;5114873;28;20028;-73
2022/08/21 11:37:41;;;;;;;4.32;2.20;;;24.30;51.90;;;;;;5114570;28;20069;-74
2022/08/21 11:40:31;;;;;;;3.08;1.63;;;24.40;52.50;;;;;;5115783;28;20028;-73
2022/08/21 11:43:17;;;;;;;2.85;1.33;;;24.40;47.90;;;;;;5114712;28;20046;-74
2022/08/21 11:45:55;;;;;;;3.42;2.00;;;24.40;48.50;;;;;;5115751;28;20028;-73
2022/08/21 11:48:20;;;;;;;4.38;2.70;;;24.40;50.40;;;;;;5115625;28;20040;-74
2022/08/21 11:50:48;;;;;;;4.70;2.42;;;24.50;51.50;;;;;;5114566;28;20035;-73
2022/08/21 11:53:30;;;;;;;4.43;2.22;;;24.50;51.10;;;;;;5115556;28;20027;-73
2022/08/21 11:56:05;;;;;;;3.15;2.15;;;24.50;50.40;;;;;;5115671;28;20020;-73
2022/08/21 11:58:47;;;;;;;4.85;2.20;;;24.40;50.30;;;;;;5115575;28;20016;-72
2022/08/21 12:01:20;;;;;;;6.23;2.50;;;24.30;49.60;;;;;;5115537;28;20443;-72
2022/08/21 12:04:27;;;;;;;5.82;2.95;;;24.30;50.70;;;;;;5115504;28;20729;-72
2022/08/21 12:06:54;;;;;;;5.75;2.90;;;24.40;51.20;;;;;;5109266;28;20040;-72
2022/08/21 12:09:25;;;;;;;5.32;3.03;;;24.60;51.10;;;;;;5115244;28;20032;-72
2022/08/21 12:12:22;;;;;;;3.90;3.05;;;24.70;51.40;;;;;;5113964;28;20048;-72
2022/08/21 12:14:50;;;;;;;6.65;3.65;;;24.90;51.30;;;;;;5115188;28;20042;-72
2022/08/21 12:17:24;;;;;;;7.47;3.45;;;25.00;51.60;;;;;;5115067;28;20020;-72
2022/08/21 12:20:14;;;;;;;5.30;3.72;;;25.00;50.00;;;;;;5115014;28;20052;-72
2022/08/21 12:22:40;;;;;;;8.00;4.35;;;25.00;49.80;;;;;;5115004;28;20044;-72
2022/08/21 12:25:11;;;;;;;7.30;4.60;;;25.10;50.30;;;;;;5114915;28;20044;-72
2022/08/21 12:28:01;;;;;;;5.03;3.70;;;25.00;50.50;;;;;;5114932;28;20042;-72
2022/08/21 12:30:27;;;;;;;7.38;4.10;;;25.00;50.50;;;;;;5114776;28;20031;-72
2022/08/21 12:32:59;;;;;;;8.25;4.47;;;25.00;49.30;;;;;;5114733;28;20024;-73
2022/08/21 12:35:32;;;;;;;6.03;3.80;;;24.90;49.30;;;;;;5114739;28;20082;-72
2022/08/21 12:38:19;;;;;;;5.85;3.88;;;24.80;49.70;;;;;;5114733;28;20046;-72
2022/08/21 12:40:59;;;;;;;6.95;3.40;;;24.90;50.60;;;;;;5114650;28;20475;-72
2022/08/21 12:43:32;;;;;;;6.10;3.50;;;24.90;48.90;;;;;;5114598;28;20031;-72
2022/08/21 12:46:00;;;;;;;6.25;3.40;;;24.90;50.30;;;;;;5114575;28;20146;-72
2022/08/21 12:49:02;;;;;;;5.95;3.75;;;25.00;49.60;;;;;;5113802;28;20024;-72
2022/08/21 12:51:48;;;;;;;6.47;3.40;;;25.20;49.10;;;;;;5114357;28;20028;-72
2022/08/21 12:54:24;;;;;;;4.30;3.10;;;25.30;49.60;;;;;;5114445;28;20039;-73
2022/08/21 12:57:02;;;;;;;9.00;3.75;;;25.40;49.10;;;;;;5114295;28;20020;-73
2022/08/21 12:59:29;;;;;;;5.22;2.90;;;25.50;48.50;;;;;;5114346;28;20024;-72
2022/08/21 13:01:57;;;;;;;4.50;2.80;;;25.60;47.40;;;;;;5114277;28;20020;-73
2022/08/21 13:04:38;;;;;;;5.57;2.90;;;25.70;47.00;;;;;;5114179;28;20020;-73